sensor_id;sensor_type;location;lat;lon;timestamp;P1;durP1;ratioP1;P2;durP2;ratioP2
65558;SDS011;52203;51.998;5.140;2022-09-25T00:01:02;3.47;;;2.20;;
65558;SDS011;52203;51.998;5.140;2022-09-25T00:03:28;2.95;;;1.60;;
65558;SDS011;52203;51.998;5.140;2022-09-25T00:06:04;3.95;;;1.90;;
65558;SDS011;52203;51.998;5.140;2022-09-25T00:08:35;6.20;;;2.00;;
65558;SDS011;52203;51.998;5.140;2022-09-25T00:11:09;3.42;;;1.73;;
65558;SDS011;52203;51.998;5.140;2022-09-25T00:13:45;4.68;;;2.30;;
65558;SDS011;52203;51.998;5.140;2022-09-25T00:16:12;5.25;;;2.30;;
65558;SDS011;52203;51.998;5.140;2022-09-25T00:18:40;4.13;;;2.40;;
65558;SDS011;52203;51.998;5.140;2022-09-25T00:21:25;3.20;;;1.73;;
65558;SDS011;52203;51.998;5.140;2022-09-25T00:23:55;4.25;;;1.90;;
65558;SDS011;52203;51.998;5.140;2022-09-25T00:26:24;4.05;;;2.28;;
65558;SDS011;52203;51.998;5.140;2022-09-25T00:28:52;5.40;;;2.20;;
65558;SDS011;52203;51.998;5.140;2022-09-25T00:31:19;3.28;;;1.95;;
65558;SDS011;52203;51.998;5.140;2022-09-25T00:33:48;5.07;;;1.95;;
65558;SDS011;52203;51.998;5.140;2022-09-25T00:36:18;5.82;;;2.35;;
65558;SDS011;52203;51.998;5.140;2022-09-25T00:38:44;5.30;;;2.05;;
65558;SDS011;52203;51.998;5.140;2022-09-25T00:41:12;5.85;;;2.47;;
65558;SDS011;52203;51.998;5.140;2022-09-25T00:46:06;4.72;;;2.10;;
65558;SDS011;52203;51.998;5.140;2022-09-25T00:48:36;3.97;;;2.20;;
65558;SDS011;52203;51.998;5.140;2022-09-25T00:51:04;6.60;;;2.22;;
65558;SDS011;52203;51.998;5.140;2022-09-25T00:53:32;5.60;;;2.17;;
65558;SDS011;52203;51.998;5.140;2022-09-25T00:56:01;5.10;;;1.70;;
65558;SDS011;52203;51.998;5.140;2022-09-25T00:58:28;3.50;;;1.92;;
65558;SDS011;52203;51.998;5.140;2022-09-25T01:00:57;4.75;;;2.35;;
65558;SDS011;52203;51.998;5.140;2022-09-25T01:03:23;4.05;;;2.20;;
65558;SDS011;52203;51.998;5.140;2022-09-25T01:05:50;4.05;;;2.10;;
65558;SDS011;52203;51.998;5.140;2022-09-25T01:08:17;7.10;;;2.30;;
65558;SDS011;52203;51.998;5.140;2022-09-25T01:10:46;3.72;;;2.13;;
65558;SDS011;52203;51.998;5.140;2022-09-25T01:13:11;5.55;;;2.65;;
65558;SDS011;52203;51.998;5.140;2022-09-25T01:18:20;5.47;;;2.30;;
65558;SDS011;52203;51.998;5.140;2022-09-25T01:29:58;7.15;;;2.60;;
65558;SDS011;52203;51.998;5.140;2022-09-25T01:32:39;7.75;;;3.13;;
65558;SDS011;52203;51.998;5.140;2022-09-25T01:35:30;5.70;;;2.63;;
65558;SDS011;52203;51.998;5.140;2022-09-25T01:38:06;5.18;;;2.20;;
65558;SDS011;52203;51.998;5.140;2022-09-25T01:43:49;9.70;;;2.55;;
65558;SDS011;52203;51.998;5.140;2022-09-25T01:46:21;8.40;;;2.38;;
65558;SDS011;52203;51.998;5.140;2022-09-25T01:48:56;6.65;;;2.13;;
65558;SDS011;52203;51.998;5.140;2022-09-25T01:51:26;6.07;;;2.22;;
65558;SDS011;52203;51.998;5.140;2022-09-25T01:53:57;7.47;;;2.58;;
65558;SDS011;52203;51.998;5.140;2022-09-25T01:56:29;5.13;;;2.20;;
65558;SDS011;52203;51.998;5.140;2022-09-25T01:59:15;4.60;;;2.20;;
65558;SDS011;52203;51.998;5.140;2022-09-25T02:01:46;5.40;;;2.60;;
65558;SDS011;52203;51.998;5.140;2022-09-25T02:04:15;4.32;;;2.00;;
65558;SDS011;52203;51.998;5.140;2022-09-25T02:06:48;3.28;;;1.70;;
65558;SDS011;52203;51.998;5.140;2022-09-25T02:12:23;7.05;;;2.28;;
65558;SDS011;52203;51.998;5.140;2022-09-25T02:14:58;5.10;;;1.75;;
65558;SDS011;52203;51.998;5.140;2022-09-25T02:17:40;7.57;;;2.15;;
65558;SDS011;52203;51.998;5.140;2022-09-25T02:20:31;3.58;;;1.80;;
65558;SDS011;52203;51.998;5.140;2022-09-25T02:23:05;3.58;;;1.73;;
65558;SDS011;52203;51.998;5.140;2022-09-25T02:25:36;3.42;;;1.88;;
65558;SDS011;52203;51.998;5.140;2022-09-25T02:28:05;9.23;;;1.95;;
65558;SDS011;52203;51.998;5.140;2022-09-25T02:30:31;3.10;;;1.60;;
65558;SDS011;52203;51.998;5.140;2022-09-25T02:32:57;3.42;;;1.88;;
65558;SDS011;52203;51.998;5.140;2022-09-25T02:35:25;4.85;;;2.05;;
65558;SDS011;52203;51.998;5.140;2022-09-25T02:37:51;5.03;;;1.83;;
65558;SDS011;52203;51.998;5.140;2022-09-25T02:40:21;5.78;;;2.42;;
65558;SDS011;52203;51.998;5.140;2022-09-25T02:43:08;2.47;;;1.50;;
65558;SDS011;52203;51.998;5.140;2022-09-25T02:45:38;4.90;;;2.10;;
65558;SDS011;52203;51.998;5.140;2022-09-25T02:53:17;4.40;;;2.03;;
65558;SDS011;52203;51.998;5.140;2022-09-25T02:56:19;4.15;;;2.55;;
65558;SDS011;52203;51.998;5.140;2022-09-25T02:58:55;2.78;;;1.30;;
65558;SDS011;52203;51.998;5.140;2022-09-25T03:01:23;7.50;;;2.22;;
65558;SDS011;52203;51.998;5.140;2022-09-25T03:03:52;3.85;;;1.88;;
65558;SDS011;52203;51.998;5.140;2022-09-25T03:06:21;4.22;;;1.80;;
65558;SDS011;52203;51.998;5.140;2022-09-25T03:08:49;4.90;;;2.20;;
65558;SDS011;52203;51.998;5.140;2022-09-25T03:11:21;4.63;;;2.00;;
65558;SDS011;52203;51.998;5.140;2022-09-25T03:13:58;3.25;;;1.75;;
65558;SDS011;52203;51.998;5.140;2022-09-25T03:16:33;4.25;;;1.52;;
65558;SDS011;52203;51.998;5.140;2022-09-25T03:19:06;5.22;;;2.42;;
65558;SDS011;52203;51.998;5.140;2022-09-25T03:21:32;4.53;;;2.20;;
65558;SDS011;52203;51.998;5.140;2022-09-25T03:23:58;3.58;;;1.80;;
65558;SDS011;52203;51.998;5.140;2022-09-25T03:26:24;3.90;;;2.03;;
65558;SDS011;52203;51.998;5.140;2022-09-25T03:28:51;5.65;;;2.28;;
65558;SDS011;52203;51.998;5.140;2022-09-25T03:31:17;4.78;;;2.28;;
65558;SDS011;52203;51.998;5.140;2022-09-25T03:33:43;6.15;;;2.30;;
65558;SDS011;52203;51.998;5.140;2022-09-25T03:38:43;7.17;;;3.00;;
65558;SDS011;52203;51.998;5.140;2022-09-25T03:41:11;5.63;;;2.92;;
65558;SDS011;52203;51.998;5.140;2022-09-25T03:43:39;4.20;;;2.30;;
65558;SDS011;52203;51.998;5.140;2022-09-25T03:46:07;6.28;;;2.80;;
65558;SDS011;52203;51.998;5.140;2022-09-25T03:48:35;6.80;;;2.90;;
65558;SDS011;52203;51.998;5.140;2022-09-25T03:51:01;5.20;;;2.40;;
65558;SDS011;52203;51.998;5.140;2022-09-25T03:53:27;5.10;;;2.28;;
65558;SDS011;52203;51.998;5.140;2022-09-25T03:55:57;5.45;;;2.53;;
65558;SDS011;52203;51.998;5.140;2022-09-25T03:58:24;6.90;;;2.70;;
65558;SDS011;52203;51.998;5.140;2022-09-25T04:00:49;6.28;;;3.00;;
65558;SDS011;52203;51.998;5.140;2022-09-25T04:03:15;4.15;;;2.15;;
65558;SDS011;52203;51.998;5.140;2022-09-25T04:05:42;4.75;;;2.63;;
65558;SDS011;52203;51.998;5.140;2022-09-25T04:08:08;4.13;;;2.30;;
65558;SDS011;52203;51.998;5.140;2022-09-25T04:10:34;5.32;;;2.35;;
65558;SDS011;52203;51.998;5.140;2022-09-25T04:13:06;4.28;;;1.77;;
65558;SDS011;52203;51.998;5.140;2022-09-25T04:15:35;4.63;;;2.33;;
65558;SDS011;52203;51.998;5.140;2022-09-25T04:18:00;5.22;;;1.90;;
65558;SDS011;52203;51.998;5.140;2022-09-25T04:20:26;4.35;;;2.10;;
65558;SDS011;52203;51.998;5.140;2022-09-25T04:22:52;5.18;;;3.28;;
65558;SDS011;52203;51.998;5.140;2022-09-25T04:25:17;4.07;;;2.47;;
65558;SDS011;52203;51.998;5.140;2022-09-25T04:27:45;12.40;;;3.30;;
65558;SDS011;52203;51.998;5.140;2022-09-25T04:30:12;7.95;;;3.03;;
65558;SDS011;52203;51.998;5.140;2022-09-25T04:32:37;4.90;;;2.50;;
65558;SDS011;52203;51.998;5.140;2022-09-25T04:35:21;5.70;;;2.90;;
65558;SDS011;52203;51.998;5.140;2022-09-25T04:37:47;6.18;;;3.00;;
65558;SDS011;52203;51.998;5.140;2022-09-25T04:40:13;6.45;;;3.00;;
65558;SDS011;52203;51.998;5.140;2022-09-25T04:42:38;4.65;;;3.08;;
65558;SDS011;52203;51.998;5.140;2022-09-25T04:45:06;7.18;;;3.30;;
65558;SDS011;52203;51.998;5.140;2022-09-25T04:47:31;7.80;;;2.67;;
65558;SDS011;52203;51.998;5.140;2022-09-25T04:49:57;5.63;;;3.15;;
65558;SDS011;52203;51.998;5.140;2022-09-25T04:52:22;5.95;;;2.97;;
65558;SDS011;52203;51.998;5.140;2022-09-25T04:54:48;4.50;;;2.55;;
65558;SDS011;52203;51.998;5.140;2022-09-25T04:57:14;9.38;;;3.60;;
65558;SDS011;52203;51.998;5.140;2022-09-25T04:59:44;7.47;;;3.10;;
65558;SDS011;52203;51.998;5.140;2022-09-25T05:02:11;8.05;;;3.17;;
65558;SDS011;52203;51.998;5.140;2022-09-25T05:04:37;5.13;;;2.88;;
65558;SDS011;52203;51.998;5.140;2022-09-25T05:07:03;4.15;;;2.30;;
65558;SDS011;52203;51.998;5.140;2022-09-25T05:09:29;4.32;;;2.70;;
65558;SDS011;52203;51.998;5.140;2022-09-25T05:11:55;7.93;;;2.90;;
65558;SDS011;52203;51.998;5.140;2022-09-25T05:14:21;5.85;;;2.75;;
65558;SDS011;52203;51.998;5.140;2022-09-25T05:16:47;5.18;;;2.65;;
65558;SDS011;52203;51.998;5.140;2022-09-25T05:19:13;6.03;;;2.95;;
65558;SDS011;52203;51.998;5.140;2022-09-25T05:21:40;4.32;;;2.28;;
65558;SDS011;52203;51.998;5.140;2022-09-25T05:24:07;8.00;;;2.78;;
65558;SDS011;52203;51.998;5.140;2022-09-25T05:26:36;4.90;;;2.70;;
65558;SDS011;52203;51.998;5.140;2022-09-25T05:29:02;4.82;;;2.58;;
65558;SDS011;52203;51.998;5.140;2022-09-25T05:31:29;4.65;;;2.63;;
65558;SDS011;52203;51.998;5.140;2022-09-25T05:33:55;5.60;;;2.65;;
65558;SDS011;52203;51.998;5.140;2022-09-25T05:36:21;6.15;;;2.22;;
65558;SDS011;52203;51.998;5.140;2022-09-25T05:38:47;5.05;;;2.90;;
65558;SDS011;52203;51.998;5.140;2022-09-25T05:41:12;4.30;;;2.65;;
65558;SDS011;52203;51.998;5.140;2022-09-25T05:43:39;4.90;;;2.35;;
65558;SDS011;52203;51.998;5.140;2022-09-25T05:46:07;5.35;;;2.15;;
65558;SDS011;52203;51.998;5.140;2022-09-25T05:48:38;6.43;;;2.92;;
65558;SDS011;52203;51.998;5.140;2022-09-25T05:51:03;4.25;;;2.25;;
65558;SDS011;52203;51.998;5.140;2022-09-25T05:53:29;5.45;;;2.45;;
65558;SDS011;52203;51.998;5.140;2022-09-25T05:55:56;5.25;;;2.50;;
65558;SDS011;52203;51.998;5.140;2022-09-25T05:58:26;3.60;;;2.25;;
65558;SDS011;52203;51.998;5.140;2022-09-25T06:00:53;5.25;;;2.63;;
65558;SDS011;52203;51.998;5.140;2022-09-25T06:03:20;4.75;;;2.47;;
65558;SDS011;52203;51.998;5.140;2022-09-25T06:05:46;17.10;;;3.85;;
65558;SDS011;52203;51.998;5.140;2022-09-25T06:08:13;7.40;;;2.67;;
65558;SDS011;52203;51.998;5.140;2022-09-25T06:10:41;3.22;;;2.03;;
65558;SDS011;52203;51.998;5.140;2022-09-25T06:13:07;6.90;;;3.08;;
65558;SDS011;52203;51.998;5.140;2022-09-25T06:15:36;4.10;;;2.08;;
65558;SDS011;52203;51.998;5.140;2022-09-25T06:18:06;6.53;;;2.85;;
65558;SDS011;52203;51.998;5.140;2022-09-25T06:20:33;3.20;;;2.10;;
65558;SDS011;52203;51.998;5.140;2022-09-25T06:22:59;7.45;;;2.90;;
65558;SDS011;52203;51.998;5.140;2022-09-25T06:25:26;3.78;;;1.92;;
65558;SDS011;52203;51.998;5.140;2022-09-25T06:27:56;6.35;;;3.58;;
65558;SDS011;52203;51.998;5.140;2022-09-25T06:30:24;7.20;;;3.08;;
65558;SDS011;52203;51.998;5.140;2022-09-25T06:32:59;6.32;;;2.80;;
65558;SDS011;52203;51.998;5.140;2022-09-25T06:35:26;4.95;;;2.65;;
65558;SDS011;52203;51.998;5.140;2022-09-25T06:37:56;4.65;;;2.30;;
65558;SDS011;52203;51.998;5.140;2022-09-25T06:40:23;3.42;;;2.25;;
65558;SDS011;52203;51.998;5.140;2022-09-25T06:45:22;6.82;;;3.08;;
65558;SDS011;52203;51.998;5.140;2022-09-25T06:47:48;5.82;;;3.60;;
65558;SDS011;52203;51.998;5.140;2022-09-25T06:50:14;8.52;;;3.80;;
65558;SDS011;52203;51.998;5.140;2022-09-25T06:52:40;8.18;;;4.22;;
65558;SDS011;52203;51.998;5.140;2022-09-25T06:55:07;8.18;;;4.68;;
65558;SDS011;52203;51.998;5.140;2022-09-25T06:57:33;6.63;;;4.20;;
65558;SDS011;52203;51.998;5.140;2022-09-25T07:00:01;9.30;;;4.28;;
65558;SDS011;52203;51.998;5.140;2022-09-25T07:02:30;10.00;;;4.93;;
65558;SDS011;52203;51.998;5.140;2022-09-25T07:05:14;8.82;;;4.45;;
65558;SDS011;52203;51.998;5.140;2022-09-25T07:07:42;8.48;;;3.65;;
65558;SDS011;52203;51.998;5.140;2022-09-25T07:10:09;7.07;;;3.22;;
65558;SDS011;52203;51.998;5.140;2022-09-25T07:12:35;7.53;;;3.80;;
65558;SDS011;52203;51.998;5.140;2022-09-25T07:15:02;8.05;;;4.22;;
65558;SDS011;52203;51.998;5.140;2022-09-25T07:17:28;7.15;;;4.25;;
65558;SDS011;52203;51.998;5.140;2022-09-25T07:19:54;6.55;;;2.85;;
65558;SDS011;52203;51.998;5.140;2022-09-25T07:22:19;7.72;;;3.80;;
65558;SDS011;52203;51.998;5.140;2022-09-25T07:24:45;5.07;;;2.55;;
65558;SDS011;52203;51.998;5.140;2022-09-25T07:27:10;10.77;;;3.58;;
65558;SDS011;52203;51.998;5.140;2022-09-25T07:29:36;6.90;;;3.25;;
65558;SDS011;52203;51.998;5.140;2022-09-25T07:32:02;7.75;;;2.70;;
65558;SDS011;52203;51.998;5.140;2022-09-25T07:34:28;5.85;;;2.58;;
65558;SDS011;52203;51.998;5.140;2022-09-25T07:36:54;5.78;;;2.65;;
65558;SDS011;52203;51.998;5.140;2022-09-25T07:39:20;4.72;;;2.65;;
65558;SDS011;52203;51.998;5.140;2022-09-25T07:41:45;5.20;;;3.13;;
65558;SDS011;52203;51.998;5.140;2022-09-25T07:44:12;5.45;;;2.70;;
65558;SDS011;52203;51.998;5.140;2022-09-25T07:46:40;7.22;;;2.90;;
65558;SDS011;52203;51.998;5.140;2022-09-25T07:49:10;7.95;;;2.67;;
65558;SDS011;52203;51.998;5.140;2022-09-25T07:51:35;7.25;;;3.03;;
65558;SDS011;52203;51.998;5.140;2022-09-25T07:54:01;5.07;;;2.83;;
65558;SDS011;52203;51.998;5.140;2022-09-25T07:56:27;6.95;;;2.55;;
65558;SDS011;52203;51.998;5.140;2022-09-25T07:58:52;5.47;;;2.63;;
65558;SDS011;52203;51.998;5.140;2022-09-25T08:01:18;6.22;;;2.47;;
65558;SDS011;52203;51.998;5.140;2022-09-25T08:03:44;8.13;;;2.63;;
65558;SDS011;52203;51.998;5.140;2022-09-25T08:06:10;4.15;;;2.55;;
65558;SDS011;52203;51.998;5.140;2022-09-25T08:08:38;5.93;;;2.63;;
65558;SDS011;52203;51.998;5.140;2022-09-25T08:11:06;6.28;;;2.88;;
65558;SDS011;52203;51.998;5.140;2022-09-25T08:13:34;5.00;;;2.00;;
65558;SDS011;52203;51.998;5.140;2022-09-25T08:16:02;4.80;;;2.20;;
65558;SDS011;52203;51.998;5.140;2022-09-25T08:18:29;6.47;;;2.03;;
65558;SDS011;52203;51.998;5.140;2022-09-25T08:21:01;4.75;;;1.83;;
65558;SDS011;52203;51.998;5.140;2022-09-25T08:23:28;5.97;;;2.10;;
65558;SDS011;52203;51.998;5.140;2022-09-25T08:25:54;5.15;;;2.30;;
65558;SDS011;52203;51.998;5.140;2022-09-25T08:28:19;4.55;;;1.85;;
65558;SDS011;52203;51.998;5.140;2022-09-25T08:30:46;3.50;;;1.98;;
65558;SDS011;52203;51.998;5.140;2022-09-25T08:33:12;4.47;;;2.03;;
65558;SDS011;52203;51.998;5.140;2022-09-25T08:35:38;6.65;;;1.83;;
65558;SDS011;52203;51.998;5.140;2022-09-25T08:38:05;5.82;;;1.70;;
65558;SDS011;52203;51.998;5.140;2022-09-25T08:40:31;3.38;;;2.03;;
65558;SDS011;52203;51.998;5.140;2022-09-25T08:43:01;6.72;;;1.85;;
65558;SDS011;52203;51.998;5.140;2022-09-25T08:45:28;3.58;;;1.60;;
65558;SDS011;52203;51.998;5.140;2022-09-25T08:48:26;4.68;;;1.50;;
65558;SDS011;52203;51.998;5.140;2022-09-25T08:51:14;3.65;;;1.60;;
65558;SDS011;52203;51.998;5.140;2022-09-25T08:53:40;3.92;;;1.42;;
65558;SDS011;52203;51.998;5.140;2022-09-25T08:56:09;3.25;;;1.40;;
65558;SDS011;52203;51.998;5.140;2022-09-25T08:58:40;4.07;;;1.35;;
65558;SDS011;52203;51.998;5.140;2022-09-25T09:01:37;3.50;;;1.40;;
65558;SDS011;52203;51.998;5.140;2022-09-25T09:04:09;3.85;;;1.48;;
65558;SDS011;52203;51.998;5.140;2022-09-25T09:06:43;4.97;;;1.40;;
65558;SDS011;52203;51.998;5.140;2022-09-25T09:11:56;4.90;;;1.85;;
65558;SDS011;52203;51.998;5.140;2022-09-25T09:14:41;2.65;;;1.40;;
65558;SDS011;52203;51.998;5.140;2022-09-25T09:17:17;4.05;;;1.10;;
65558;SDS011;52203;51.998;5.140;2022-09-25T09:19:52;2.45;;;0.98;;
65558;SDS011;52203;51.998;5.140;2022-09-25T09:22:25;3.10;;;1.00;;
65558;SDS011;52203;51.998;5.140;2022-09-25T09:30:15;2.58;;;0.90;;
65558;SDS011;52203;51.998;5.140;2022-09-25T09:35:29;6.13;;;1.20;;
65558;SDS011;52203;51.998;5.140;2022-09-25T09:38:22;3.70;;;1.17;;
65558;SDS011;52203;51.998;5.140;2022-09-25T09:41:10;3.38;;;1.10;;
65558;SDS011;52203;51.998;5.140;2022-09-25T09:46:46;4.85;;;1.17;;
65558;SDS011;52203;51.998;5.140;2022-09-25T09:49:22;3.70;;;1.10;;
65558;SDS011;52203;51.998;5.140;2022-09-25T09:52:01;2.83;;;1.10;;
65558;SDS011;52203;51.998;5.140;2022-09-25T09:54:41;2.58;;;0.85;;
65558;SDS011;52203;51.998;5.140;2022-09-25T09:57:42;2.55;;;1.05;;
65558;SDS011;52203;51.998;5.140;2022-09-25T10:00:05;3.75;;;0.98;;
65558;SDS011;52203;51.998;5.140;2022-09-25T10:02:44;5.80;;;1.17;;
65558;SDS011;52203;51.998;5.140;2022-09-25T10:05:35;3.03;;;1.00;;
65558;SDS011;52203;51.998;5.140;2022-09-25T10:08:05;2.90;;;1.00;;
65558;SDS011;52203;51.998;5.140;2022-09-25T10:13:03;2.20;;;1.00;;
65558;SDS011;52203;51.998;5.140;2022-09-25T10:15:41;4.43;;;1.02;;
65558;SDS011;52203;51.998;5.140;2022-09-25T10:18:15;4.57;;;1.50;;
65558;SDS011;52203;51.998;5.140;2022-09-25T10:20:42;5.72;;;1.42;;
65558;SDS011;52203;51.998;5.140;2022-09-25T10:23:54;3.72;;;1.20;;
65558;SDS011;52203;51.998;5.140;2022-09-25T10:31:32;3.38;;;1.00;;
65558;SDS011;52203;51.998;5.140;2022-09-25T10:36:38;6.38;;;1.35;;
65558;SDS011;52203;51.998;5.140;2022-09-25T10:39:27;3.72;;;1.08;;
65558;SDS011;52203;51.998;5.140;2022-09-25T10:41:56;3.13;;;0.85;;
65558;SDS011;52203;51.998;5.140;2022-09-25T10:52:51;2.20;;;0.77;;
65558;SDS011;52203;51.998;5.140;2022-09-25T10:55:36;1.92;;;0.82;;
65558;SDS011;52203;51.998;5.140;2022-09-25T11:06:01;2.35;;;0.70;;
65558;SDS011;52203;51.998;5.140;2022-09-25T11:08:48;2.43;;;0.80;;
65558;SDS011;52203;51.998;5.140;2022-09-25T11:11:21;3.17;;;1.27;;
65558;SDS011;52203;51.998;5.140;2022-09-25T11:13:54;1.38;;;0.90;;
65558;SDS011;52203;51.998;5.140;2022-09-25T11:19:23;2.95;;;0.98;;
65558;SDS011;52203;51.998;5.140;2022-09-25T11:30:52;2.38;;;1.10;;
65558;SDS011;52203;51.998;5.140;2022-09-25T11:33:31;3.92;;;1.00;;
65558;SDS011;52203;51.998;5.140;2022-09-25T11:36:07;4.90;;;0.90;;
65558;SDS011;52203;51.998;5.140;2022-09-25T11:38:55;1.80;;;0.80;;
65558;SDS011;52203;51.998;5.140;2022-09-25T11:42:04;1.92;;;1.17;;
65558;SDS011;52203;51.998;5.140;2022-09-25T11:44:36;3.05;;;0.90;;
65558;SDS011;52203;51.998;5.140;2022-09-25T11:47:21;3.55;;;0.98;;
65558;SDS011;52203;51.998;5.140;2022-09-25T11:50:06;3.22;;;0.80;;
65558;SDS011;52203;51.998;5.140;2022-09-25T12:03:36;2.70;;;0.93;;
65558;SDS011;52203;51.998;5.140;2022-09-25T12:09:04;2.42;;;0.80;;
65558;SDS011;52203;51.998;5.140;2022-09-25T12:20:27;2.97;;;0.82;;
65558;SDS011;52203;51.998;5.140;2022-09-25T12:32:08;3.38;;;0.75;;
65558;SDS011;52203;51.998;5.140;2022-09-25T12:35:12;1.63;;;0.98;;
65558;SDS011;52203;51.998;5.140;2022-09-25T12:37:49;0.93;;;0.60;;
65558;SDS011;52203;51.998;5.140;2022-09-25T12:40:30;1.95;;;0.70;;
65558;SDS011;52203;51.998;5.140;2022-09-25T12:48:10;1.92;;;0.75;;
65558;SDS011;52203;51.998;5.140;2022-09-25T12:50:51;2.00;;;0.85;;
65558;SDS011;52203;51.998;5.140;2022-09-25T12:53:33;2.90;;;0.88;;
65558;SDS011;52203;51.998;5.140;2022-09-25T12:56:08;2.90;;;0.80;;
65558;SDS011;52203;51.998;5.140;2022-09-25T13:01:21;2.15;;;0.73;;
65558;SDS011;52203;51.998;5.140;2022-09-25T13:07:16;1.88;;;0.70;;
65558;SDS011;52203;51.998;5.140;2022-09-25T13:09:47;3.95;;;0.95;;
65558;SDS011;52203;51.998;5.140;2022-09-25T13:14:53;1.63;;;0.70;;
65558;SDS011;52203;51.998;5.140;2022-09-25T13:17:22;2.55;;;0.98;;
65558;SDS011;52203;51.998;5.140;2022-09-25T13:19:48;2.22;;;0.80;;
65558;SDS011;52203;51.998;5.140;2022-09-25T13:22:21;2.15;;;0.75;;
65558;SDS011;52203;51.998;5.140;2022-09-25T13:27:40;2.00;;;0.80;;
65558;SDS011;52203;51.998;5.140;2022-09-25T13:32:52;2.45;;;0.80;;
65558;SDS011;52203;51.998;5.140;2022-09-25T13:35:27;1.73;;;0.80;;
65558;SDS011;52203;51.998;5.140;2022-09-25T13:37:55;2.60;;;0.80;;
65558;SDS011;52203;51.998;5.140;2022-09-25T13:40:36;1.38;;;0.80;;
65558;SDS011;52203;51.998;5.140;2022-09-25T13:45:47;1.63;;;0.70;;
65558;SDS011;52203;51.998;5.140;2022-09-25T13:51:40;2.72;;;1.20;;
65558;SDS011;52203;51.998;5.140;2022-09-25T13:53:49;1.50;;;0.70;;
65558;SDS011;52203;51.998;5.140;2022-09-25T13:56:24;1.95;;;0.90;;
65558;SDS011;52203;51.998;5.140;2022-09-25T13:58:59;3.30;;;0.90;;
65558;SDS011;52203;51.998;5.140;2022-09-25T14:01:54;3.53;;;0.80;;
65558;SDS011;52203;51.998;5.140;2022-09-25T14:12:57;2.60;;;0.77;;
65558;SDS011;52203;51.998;5.140;2022-09-25T14:21:23;1.77;;;0.80;;
65558;SDS011;52203;51.998;5.140;2022-09-25T14:23:53;1.17;;;0.70;;
65558;SDS011;52203;51.998;5.140;2022-09-25T14:26:24;2.78;;;0.80;;
65558;SDS011;52203;51.998;5.140;2022-09-25T14:35:29;1.48;;;0.80;;
65558;SDS011;52203;51.998;5.140;2022-09-25T14:38:09;1.38;;;0.70;;
65558;SDS011;52203;51.998;5.140;2022-09-25T14:41:09;1.75;;;0.77;;
65558;SDS011;52203;51.998;5.140;2022-09-25T14:53:41;1.52;;;0.70;;
65558;SDS011;52203;51.998;5.140;2022-09-25T14:56:10;1.98;;;0.80;;
65558;SDS011;52203;51.998;5.140;2022-09-25T14:58:43;1.33;;;0.70;;
65558;SDS011;52203;51.998;5.140;2022-09-25T15:04:10;2.15;;;0.80;;
65558;SDS011;52203;51.998;5.140;2022-09-25T15:09:41;2.53;;;0.88;;
65558;SDS011;52203;51.998;5.140;2022-09-25T15:12:28;3.17;;;0.70;;
65558;SDS011;52203;51.998;5.140;2022-09-25T15:23:02;3.15;;;0.77;;
65558;SDS011;52203;51.998;5.140;2022-09-25T15:25:35;2.28;;;0.80;;
65558;SDS011;52203;51.998;5.140;2022-09-25T15:28:12;2.08;;;0.80;;
65558;SDS011;52203;51.998;5.140;2022-09-25T15:30:40;2.10;;;0.65;;
65558;SDS011;52203;51.998;5.140;2022-09-25T15:33:18;1.10;;;0.60;;
65558;SDS011;52203;51.998;5.140;2022-09-25T15:35:56;1.25;;;0.60;;
65558;SDS011;52203;51.998;5.140;2022-09-25T15:40:55;2.30;;;0.73;;
65558;SDS011;52203;51.998;5.140;2022-09-25T15:43:21;1.73;;;0.60;;
65558;SDS011;52203;51.998;5.140;2022-09-25T15:48:30;1.83;;;0.60;;
65558;SDS011;52203;51.998;5.140;2022-09-25T15:51:01;1.42;;;0.65;;
65558;SDS011;52203;51.998;5.140;2022-09-25T15:53:31;1.40;;;0.60;;
65558;SDS011;52203;51.998;5.140;2022-09-25T15:56:15;1.30;;;0.60;;
65558;SDS011;52203;51.998;5.140;2022-09-25T15:58:46;5.55;;;0.80;;
65558;SDS011;52203;51.998;5.140;2022-09-25T16:01:33;1.40;;;0.60;;
65558;SDS011;52203;51.998;5.140;2022-09-25T16:04:18;1.75;;;0.73;;
65558;SDS011;52203;51.998;5.140;2022-09-25T16:14:45;1.67;;;0.73;;
65558;SDS011;52203;51.998;5.140;2022-09-25T16:20:04;2.80;;;0.80;;
65558;SDS011;52203;51.998;5.140;2022-09-25T16:22:51;2.30;;;1.00;;
65558;SDS011;52203;51.998;5.140;2022-09-25T16:25:24;1.73;;;0.75;;
65558;SDS011;52203;51.998;5.140;2022-09-25T16:27:52;2.38;;;0.90;;
65558;SDS011;52203;51.998;5.140;2022-09-25T16:30:24;2.90;;;0.90;;
65558;SDS011;52203;51.998;5.140;2022-09-25T16:32:51;2.05;;;1.05;;
65558;SDS011;52203;51.998;5.140;2022-09-25T16:35:32;1.90;;;1.00;;
65558;SDS011;52203;51.998;5.140;2022-09-25T16:38:03;2.15;;;1.00;;
65558;SDS011;52203;51.998;5.140;2022-09-25T16:40:30;2.00;;;1.10;;
65558;SDS011;52203;51.998;5.140;2022-09-25T16:43:03;2.45;;;1.02;;
65558;SDS011;52203;51.998;5.140;2022-09-25T16:45:57;3.33;;;1.15;;
65558;SDS011;52203;51.998;5.140;2022-09-25T16:48:34;3.50;;;1.13;;
65558;SDS011;52203;51.998;5.140;2022-09-25T16:51:02;3.72;;;1.10;;
65558;SDS011;52203;51.998;5.140;2022-09-25T16:53:36;2.83;;;1.20;;
65558;SDS011;52203;51.998;5.140;2022-09-25T16:56:03;5.47;;;1.38;;
65558;SDS011;52203;51.998;5.140;2022-09-25T16:58:28;3.00;;;1.10;;
65558;SDS011;52203;51.998;5.140;2022-09-25T17:00:54;2.40;;;1.00;;
65558;SDS011;52203;51.998;5.140;2022-09-25T17:03:20;3.90;;;1.10;;
65558;SDS011;52203;51.998;5.140;2022-09-25T17:05:46;2.88;;;0.98;;
65558;SDS011;52203;51.998;5.140;2022-09-25T17:10:55;2.83;;;1.00;;
65558;SDS011;52203;51.998;5.140;2022-09-25T17:13:22;3.05;;;1.00;;
65558;SDS011;52203;51.998;5.140;2022-09-25T17:15:51;2.75;;;1.20;;
65558;SDS011;52203;51.998;5.140;2022-09-25T17:18:20;3.45;;;1.20;;
65558;SDS011;52203;51.998;5.140;2022-09-25T17:20:48;1.83;;;1.08;;
65558;SDS011;52203;51.998;5.140;2022-09-25T17:23:16;2.88;;;1.33;;
65558;SDS011;52203;51.998;5.140;2022-09-25T17:25:48;1.48;;;1.10;;
65558;SDS011;52203;51.998;5.140;2022-09-25T17:28:16;2.13;;;1.27;;
65558;SDS011;52203;51.998;5.140;2022-09-25T17:30:42;2.60;;;1.00;;
65558;SDS011;52203;51.998;5.140;2022-09-25T17:33:11;2.22;;;1.10;;
65558;SDS011;52203;51.998;5.140;2022-09-25T17:35:41;2.08;;;1.08;;
65558;SDS011;52203;51.998;5.140;2022-09-25T17:38:29;1.95;;;1.10;;
65558;SDS011;52203;51.998;5.140;2022-09-25T17:41:03;3.53;;;1.20;;
65558;SDS011;52203;51.998;5.140;2022-09-25T17:43:31;2.33;;;1.50;;
65558;SDS011;52203;51.998;5.140;2022-09-25T17:45:57;2.60;;;1.10;;
65558;SDS011;52203;51.998;5.140;2022-09-25T17:48:25;6.25;;;1.40;;
65558;SDS011;52203;51.998;5.140;2022-09-25T17:50:56;1.65;;;1.00;;
65558;SDS011;52203;51.998;5.140;2022-09-25T17:53:24;2.53;;;1.20;;
65558;SDS011;52203;51.998;5.140;2022-09-25T17:55:52;2.00;;;1.05;;
65558;SDS011;52203;51.998;5.140;2022-09-25T17:58:19;3.25;;;1.15;;
65558;SDS011;52203;51.998;5.140;2022-09-25T18:00:46;1.98;;;1.17;;
65558;SDS011;52203;51.998;5.140;2022-09-25T18:03:12;2.03;;;1.20;;
65558;SDS011;52203;51.998;5.140;2022-09-25T18:05:39;2.38;;;1.13;;
65558;SDS011;52203;51.998;5.140;2022-09-25T18:08:06;2.25;;;1.20;;
65558;SDS011;52203;51.998;5.140;2022-09-25T18:10:32;2.22;;;1.30;;
65558;SDS011;52203;51.998;5.140;2022-09-25T18:13:00;1.60;;;1.00;;
65558;SDS011;52203;51.998;5.140;2022-09-25T18:15:27;2.90;;;1.25;;
65558;SDS011;52203;51.998;5.140;2022-09-25T18:17:53;3.38;;;1.27;;
65558;SDS011;52203;51.998;5.140;2022-09-25T18:20:19;2.53;;;1.30;;
65558;SDS011;52203;51.998;5.140;2022-09-25T18:23:04;2.97;;;2.03;;
65558;SDS011;52203;51.998;5.140;2022-09-25T18:25:30;3.10;;;1.70;;
65558;SDS011;52203;51.998;5.140;2022-09-25T18:27:58;2.47;;;1.40;;
65558;SDS011;52203;51.998;5.140;2022-09-25T18:30:24;2.88;;;1.75;;
65558;SDS011;52203;51.998;5.140;2022-09-25T18:32:50;4.40;;;1.98;;
65558;SDS011;52203;51.998;5.140;2022-09-25T18:35:16;3.53;;;1.80;;